Latest Weather Observations for Browse Island

IDW60801

Issued at 5:35 pm WST Friday 1 August 2014 (issued every 30 minutes, with the page automatically refreshed every 10 minutes)

About weather observations | Map of weather stations | Latest weather observations for WA | Other Formats
Station Details ID: 200784 Name: BROWSE ISLAND Lat: -14.11 Lon: 123.55 Height: 3.7 m
Data from the previous 72 hours. | See also: Recent months for locations in Western Australia
Date/Time
WST
Temp
°C
App
Temp
°C
Dew
Point
Rel
Hum
%
Delta-T
°C
Wind Press
QNH
hPa
Press
MSL
hPa
Rain
since 9 am
mm
Dir
 
Spd
km/h
Gust
km/h
Spd
kts
Gust
kts
01/05:30pm 27.0 - - - - E 13 17 7 9 1012.0 - -
01/05:00pm 27.0 - - - - E 13 13 7 7 1012.0 1012.4 -
01/04:30pm 27.0 - - - - E 13 - 7 - 1012.0 - -
01/04:00pm 27.4 - - - - ESE 15 - 8 - 1012.0 1011.9 -
01/03:30pm 27.0 - - - - ESE 15 - 8 - 1011.0 - -
01/03:00pm 27.1 - - - - ESE 15 - 8 - 1011.0 1011.6 -
01/02:30pm 28.0 - - - - ESE 15 - 8 - 1011.0 - -
01/02:00pm 27.4 - - - - ESE 15 - 8 - 1011.0 1011.8 -
01/01:30pm 28.0 - - - - SE 15 - 8 - 1012.0 - -
01/01:00pm 27.8 - - - - SE 13 - 7 - 1012.0 1012.3 -
01/12:30pm 28.0 - - - - SSE 11 - 6 - 1012.0 - -
01/12:00pm 27.5 - - - - SSE 11 - 6 - 1012.0 1012.8 -
01/11:30am 28.0 - - - - SSE 9 - 5 - 1013.0 - -
01/11:00am 27.4 - - - - SSE 11 - 6 - 1013.0 1013.8 -
01/10:30am 27.0 - - - - SSE 13 - 7 - 1014.0 - -
01/10:00am 26.8 - - - - S 17 - 9 - 1014.0 1014.3 -
01/09:30am 27.0 - - - - S 17 - 9 - 1014.0 - -
01/09:00am 26.6 - - - - SSE 17 - 9 - 1014.0 1014.2 -
01/08:30am 27.0 - - - - S 17 - 9 - 1014.0 - -
01/08:00am 26.8 - - - - SSE 13 - 7 - 1014.0 1014.0 -
01/07:30am 27.0 - - - - SE 11 - 6 - 1013.0 - -
01/07:00am 26.5 - - - - SE 11 - 6 - 1013.0 1013.6 -
01/06:30am 26.0 - - - - SE 11 - 6 - 1013.0 - -
01/06:00am 26.5 - - - - SE 11 - 6 - 1013.0 1013.3 -
01/05:30am 26.0 - - - - SE 9 - 5 - 1013.0 - -
01/05:00am 26.3 - - - - SE 11 - 6 - 1013.0 1013.1 -
01/04:30am 26.0 - - - - S 13 - 7 - 1013.0 - -
01/04:00am 26.0 - - - - SSE 13 - 7 - 1013.0 1013.4 -
01/03:30am 26.0 - - - - S 11 - 6 - 1013.0 - -
01/03:00am 26.1 - - - - S 13 - 7 - 1013.0 1013.5 -
01/02:30am 26.0 - - - - S 13 - 7 - 1013.0 - -
01/02:00am 26.0 - - - - S 13 - 7 - 1013.0 1013.7 -
01/01:30am 26.0 - - - - S 13 - 7 - 1013.0 - -
01/01:00am 26.0 - - - - S 13 - 7 - 1013.0 1013.7 -
01/12:30am 26.0 - - - - S 13 - 7 - 1013.0 - -
01/12:00am 26.0 - - - - S 11 11 6 6 1014.0 1014.0 -
 
Date/Time
WST
Temp
°C
App
Temp
°C
Dew
Point
Rel
Hum
%
Delta-T
°C
Wind Press
QNH
hPa
Press
MSL
hPa
Rain
since 9 am
mm
Dir
 
Spd
km/h
Gust
km/h
Spd
kts
Gust
kts
31/11:30pm 26.0 - - - - S 11 - 6 - 1014.0 - -
31/11:00pm 25.8 - - - - S 13 - 7 - 1014.0 1014.2 -
31/10:30pm 26.0 - - - - S 11 - 6 - 1014.0 - -
31/10:00pm 26.1 - - - - S 11 - 6 - 1014.0 1014.2 -
31/09:30pm 26.0 - - - - SSW 11 - 6 - 1014.0 - -
31/09:00pm 26.0 - - - - SSW 11 - 6 - 1014.0 1014.3 -
31/08:30pm 26.0 - - - - S 6 - 3 - 1014.0 - -
31/08:00pm 25.9 - - - - SE 6 - 3 - 1014.0 1013.9 -
31/07:30pm 26.0 - - - - ESE 6 - 3 - 1013.0 - -
31/07:00pm 26.0 - - - - SE 7 - 4 - 1013.0 1013.1 -
31/06:30pm 26.0 - - - - ESE 7 - 4 - 1013.0 - -
31/06:00pm 26.1 - - - - ESE 9 11 5 6 1012.0 1012.6 -
31/05:30pm 26.0 - - - - ESE 9 - 5 - 1012.0 - -
31/05:00pm 26.5 - - - - SE 11 - 6 - 1012.0 1012.6 -
31/04:30pm 27.0 - - - - SE 13 - 7 - 1012.0 - -
31/04:00pm 27.2 - - - - ESE 13 - 7 - 1012.0 1012.4 -
31/03:30pm 28.0 - - - - ESE 13 - 7 - 1012.0 - -
31/03:00pm 27.5 - - - - ESE 13 - 7 - 1012.0 1012.4 -
31/02:30pm 27.0 - - - - ESE 13 - 7 - 1012.0 - -
31/02:00pm 27.8 - - - - E 13 - 7 - 1012.0 1012.8 -
31/01:30pm 28.0 - - - - ESE 13 - 7 - 1013.0 - -
31/01:00pm 27.5 - - - - E 13 - 7 - 1014.0 1013.9 -
31/12:30pm 28.0 - - - - ESE 13 - 7 - 1014.0 - -
31/12:00pm 27.7 - - - - ESE 13 - 7 - 1014.0 1014.6 -
31/11:30am 28.0 - - - - SE 13 - 7 - 1014.0 - -
31/11:00am 27.7 - - - - ESE 13 - 7 - 1015.0 1015.1 -
31/10:30am 27.0 - - - - SE 13 - 7 - 1015.0 - -
31/10:00am 27.4 - - - - SE 9 - 5 - 1015.0 1015.4 -
31/09:30am 27.0 - - - - SSE 9 - 5 - 1015.0 - -
31/09:00am 26.9 - - - - SSE 11 - 6 - 1015.0 1015.5 -
31/08:30am 26.0 - - - - S 15 - 8 - 1015.0 - -
31/08:00am 26.0 - - - - S 15 - 8 - 1015.0 1015.4 -
31/07:30am 26.0 - - - - S 15 - 8 - 1015.0 - -
31/07:00am 26.1 - - - - SSE 15 - 8 - 1015.0 1015.0 -
31/06:30am 26.0 - - - - S 13 - 7 - 1015.0 - -
31/06:00am 25.9 - - - - S 15 - 8 - 1014.0 1014.7 -
31/05:30am 26.0 - - - - SSE 13 - 7 - 1014.0 - -
31/05:00am 25.9 - - - - SSE 13 - 7 - 1014.0 1014.3 -
31/04:30am 26.0 - - - - SE 13 - 7 - 1014.0 - -
31/04:00am 25.8 - - - - SE 9 - 5 - 1014.0 1014.2 -
31/03:30am 26.0 - - - - ESE 11 - 6 - 1014.0 - -
31/03:00am 25.7 - - - - ESE 13 - 7 - 1014.0 1014.4 -
31/02:30am 26.0 - - - - E 13 - 7 - 1014.0 - -
31/02:00am 25.8 - - - - E 13 - 7 - 1014.0 1014.6 -
31/01:30am 26.0 - - - - ESE 15 - 8 - 1015.0 - -
31/01:00am 25.8 - - - - E 15 - 8 - 1015.0 1015.0 -
31/12:30am 26.0 - - - - E 15 - 8 - 1015.0 - -
31/12:00am 25.9 - - - - E 13 - 7 - 1015.0 1015.3 -
 
Date/Time
WST
Temp
°C
App
Temp
°C
Dew
Point
Rel
Hum
%
Delta-T
°C
Wind Press
QNH
hPa
Press
MSL
hPa
Rain
since 9 am
mm
Dir
 
Spd
km/h
Gust
km/h
Spd
kts
Gust
kts
30/11:30pm 26.0 - - - - ESE 13 - 7 - 1015.0 - -
30/11:00pm 26.1 - - - - ESE 13 - 7 - 1015.0 1015.3 -
30/10:30pm 26.0 - - - - ESE 11 - 6 - 1015.0 - -
30/10:00pm 26.3 - - - - ESE 7 - 4 - 1015.0 1015.1 -
30/09:30pm 26.0 - - - - ESE 7 - 4 - 1015.0 - -
30/09:00pm 26.4 - - - - ESE 6 - 3 - 1015.0 1015.0 -
30/08:30pm 26.0 - - - - ENE 6 - 3 - 1015.0 - -
30/08:00pm 26.5 - - - - ENE 9 - 5 - 1015.0 1015.0 -
30/07:30pm 27.0 - - - - E 7 - 4 - 1014.0 - -
30/07:00pm 26.4 - - - - E 9 - 5 - 1014.0 1014.5 -
30/06:30pm 26.0 - - - - E 9 - 5 - 1014.0 - -
30/06:00pm 26.4 - - - - E 9 - 5 - 1014.0 1014.0 -
30/05:30pm 27.0 - - - - E 13 - 7 - 1014.0 - -
30/05:00pm 27.5 - - - - E 13 - 7 - 1013.0 1013.7 -
30/04:30pm 28.0 - - - - E 13 - 7 - 1013.0 - -
30/04:00pm 28.3 - - - - E 15 - 8 - 1013.0 1013.3 -
30/03:30pm 28.0 - - - - E 17 - 9 - 1013.0 - -
30/03:00pm 28.5 - - - - E 15 - 8 - 1013.0 1013.0 -
30/02:30pm 28.0 - - - - ESE 13 - 7 - 1013.0 - -
30/02:00pm 27.8 - - - - ESE 13 - 7 - 1013.0 1013.0 -
30/01:30pm 27.0 - - - - SE 11 - 6 - 1013.0 - -
30/01:00pm 27.1 - - - - SE 11 - 6 - 1014.0 1013.9 -
30/12:30pm 27.0 - - - - E 13 - 7 - 1014.0 - -
30/12:00pm 27.3 - - - - E 15 - 8 - 1014.0 1014.8 -
30/11:30am 28.0 - - - - E 15 - 8 - 1015.0 - -
30/11:00am 27.3 - - - - ENE 15 - 8 - 1015.0 1015.6 -
30/10:30am 28.0 - - - - ENE 13 - 7 - 1015.0 - -
30/10:00am 27.9 - - - - E 13 - 7 - 1016.0 1016.1 -
30/09:30am 28.0 - - - - E 9 - 5 - 1016.0 - -
30/09:00am 27.4 - - - - E 11 - 6 - 1016.0 1016.2 -
30/08:30am 27.0 - - - - ESE 13 - 7 - 1016.0 - -
30/08:00am 26.2 - - - - SE 13 - 7 - 1016.0 1016.0 -
30/07:30am 26.0 - - - - SE 13 - 7 - 1015.0 - -
30/07:00am 25.5 - - - - SSE 15 - 8 - 1015.0 1015.5 -
30/06:30am 26.0 - - - - SE 13 - 7 - 1015.0 - -
30/06:00am 25.5 - - - - ESE 11 - 6 - 1015.0 1015.3 -
30/05:30am 25.0 - - - - ESE 11 - 6 - 1015.0 - -
30/05:00am 25.4 - - - - ESE 9 - 5 - 1015.0 1014.9 -
30/04:30am 26.0 - - - - ESE 11 - 6 - 1014.0 - -
30/04:00am 25.4 - - - - E 11 - 6 - 1014.0 1014.7 -
30/03:30am 26.0 - - - - E 11 - 6 - 1014.0 - -
30/03:00am 25.6 - - - - E 13 - 7 - 1014.0 1014.6 -
30/02:30am 26.0 - - - - E 13 - 7 - 1014.0 - -
30/02:00am 25.6 - - - - ENE 15 - 8 - 1015.0 1014.9 -
30/01:30am 26.0 - - - - E 17 - 9 - 1015.0 - -
30/01:00am 25.7 - - - - E 15 - 8 - 1015.0 1015.2 -
30/12:30am 26.0 - - - - E 17 - 9 - 1015.0 - -
30/12:00am 25.8 - - - - E 17 - 9 - 1015.0 1015.5 -
 
Date/Time
WST
Temp
°C
App
Temp
°C
Dew
Point
Rel
Hum
%
Delta-T
°C
Wind Press
QNH
hPa
Press
MSL
hPa
Rain
since 9 am
mm
Dir
 
Spd
km/h
Gust
km/h
Spd
kts
Gust
kts
29/11:30pm 26.0 - - - - E 17 - 9 - 1015.0 - -
29/11:00pm 26.0 - - - - E 15 - 8 - 1015.0 1015.6 -
29/10:30pm 26.0 - - - - E 19 - 10 - 1015.0 - -
29/10:00pm 26.3 - - - - E 20 - 11 - 1015.0 1015.6 -
29/09:30pm 26.0 - - - - E 20 - 11 - 1015.0 - -
29/09:00pm 26.4 - - - - E 17 - 9 - 1015.0 1015.4 -
29/08:30pm 26.0 - - - - E 15 - 8 - 1015.0 - -
29/08:00pm 26.2 - - - - E 15 - 8 - 1015.0 1015.2 -
29/07:30pm 26.0 - - - - E 15 - 8 - 1015.0 - -
29/07:00pm 26.3 - - - - E 13 - 7 - 1014.0 1014.5 -
29/06:30pm 26.0 - - - - E 13 - 7 - 1014.0 - -
29/06:00pm 26.6 - - - - E 13 - 7 - 1014.0 1014.0 -

Other Formats:

Comma delimited format used in spreadsheet applications
http://www.bom.gov.au/fwo/IDW60801/IDW60801.94103.axf

JavaScript Object Notation format (JSON) in row-major order
http://www.bom.gov.au/fwo/IDW60801/IDW60801.94103.json